Close Search

Base
°C
Summit
°C
24hr Snow
cm

WEATHER AT A GLANCE

Image Slideshow

Gnorm the Powder Gnome

Gnorm the Powder Gnome (27cm | 10.6in tall) - Cleared @ 3pm Daily

RMR Village

Revelstoke Mountain Resort -  RMR Village Webcam

Top of The Stoke

Revelstoke Mountain Resort -  Top of The Stoke Webcam

Top of Stellar

Revelstoke Mountain Resort -  Top of Stellar Webcam

Mackenzie Outpost

Revelstoke Mountain Resort -  Mackenzie Outpost Webcam

Ripper

Revelstoke Mountain Resort -  Ripper Webcam
New Snow
cm
24hr Snow
cm
48hr Snow
cm
Base
°C
Summit
°C
Wind (Summit)
km/h

Today's Forecast

Subpeak Weather

Time Avg. Air Temp Dew Point Avg. Rel Humidity Avg. 2 Min Wind Speed Max Gust Velocity MGV Time MGV Direction Avg. Spot Wind Velocity
2023-02-07 23:30:00-10° C-11° C91%13 km/h15 km/h23:29:00W11 km/h
22:30:00-10° C-11° C91%16 km/h28 km/h22:26:00W20 km/h
21:30:00-9° C-10° C92%28 km/h34 km/h21:30:00SW28 km/h
20:30:00-8° C-9° C93%17 km/h21 km/h20:30:00SW16 km/h
19:30:00-8° C-9° C93%19 km/h23 km/h19:26:00S20 km/h
18:30:00-7° C-8° C94%22 km/h26 km/h18:30:00S23 km/h
17:30:00-7° C-8° C94%37 km/h45 km/h17:27:00S36 km/h
16:30:00-7° C-8° C94%27 km/h32 km/h16:27:00S29 km/h
15:30:00-7° C-8° C94%26 km/h29 km/h15:26:00SE23 km/h
14:30:00-7° C-8° C94%30 km/h35 km/h14:27:00SE30 km/h
13:30:00-7° C-8° C94%28 km/h35 km/h13:26:00SE28 km/h
12:30:00-7° C-8° C94%23 km/h26 km/h12:30:00SE23 km/h
11:30:00-7° C-8° C94%24 km/h27 km/h11:30:00SE22 km/h
10:30:00-7° C-8° C94%22 km/h29 km/h10:27:00SE25 km/h
09:30:00-7° C-7° C94%36 km/h42 km/h09:30:00SE36 km/h
08:30:00-7° C-8° C94%37 km/h41 km/h08:29:00SE35 km/h
07:30:00-7° C-8° C94%34 km/h37 km/h07:30:00S34 km/h
06:30:00-7° C-8° C94%29 km/h34 km/h06:29:00SE28 km/h
05:30:00-7° C-8° C94%30 km/h38 km/h05:28:00SE30 km/h
04:30:00-7° C-8° C94%25 km/h35 km/h04:26:00SE29 km/h
03:30:00-7° C-8° C94%34 km/h42 km/h03:26:00S34 km/h
02:30:00-7° C-8° C94%31 km/h41 km/h02:30:00SE27 km/h
01:30:00-7° C-8° C94%25 km/h34 km/h01:28:00SE28 km/h
00:30:00-7° C-8° C94%37 km/h50 km/h00:28:00SE40 km/h

Time Avg. Air Temp Dew Point Avg. Rel Humidity Avg. 2 Min Wind Speed Max Gust Velocity MGV Time MGV Direction Avg. Spot Wind Velocity
2023-02-07 23:30:00-10° C-11° C91%13 km/h15 km/h23:29:00W11 km/h
23:25:00-10° C-11° C91%12 km/h15 km/h23:24:00W11 km/h
23:20:00-10° C-11° C91%13 km/h15 km/h23:17:00W13 km/h
23:15:00-10° C-11° C91%13 km/h16 km/h23:12:00N13 km/h
23:10:00-10° C-11° C91%15 km/h16 km/h23:10:00W15 km/h
23:05:00-10° C-11° C91%14 km/h17 km/h23:05:00W13 km/h
23:00:00-10° C-11° C91%13 km/h16 km/h22:57:00W13 km/h
22:55:00-10° C-11° C91%15 km/h20 km/h22:51:00W17 km/h
22:50:00-10° C-11° C91%17 km/h21 km/h22:46:00NW16 km/h
22:45:00-10° C-11° C91%19 km/h27 km/h22:41:00NE18 km/h
22:40:00-10° C-11° C91%18 km/h24 km/h22:36:00W11 km/h
22:35:00-10° C-11° C91%16 km/h23 km/h22:34:00NW18 km/h
22:30:00-10° C-11° C91%16 km/h28 km/h22:26:00W20 km/h